createdAt,value
2023-05-14T05:30:40.277Z,12.01
2023-05-14T05:35:43.334Z,12.02
2023-05-14T05:40:45.602Z,11.95
2023-05-14T05:45:47.717Z,12.07
2023-05-14T05:50:50.406Z,12.11
2023-05-14T05:55:52.604Z,12.13
2023-05-14T06:00:55.288Z,12.13
2023-05-14T06:05:57.353Z,12.18
2023-05-14T06:10:59.462Z,12.22
2023-05-14T06:16:01.537Z,12.19
2023-05-14T06:21:03.866Z,12.24
2023-05-14T06:26:06.088Z,12.16
2023-05-14T06:31:08.222Z,12.18
2023-05-14T06:36:10.668Z,12.19
2023-05-14T06:41:12.752Z,12.25
2023-05-14T06:46:14.918Z,12.27
2023-05-14T06:51:17.011Z,12.27
2023-05-14T06:56:19.193Z,12.34
2023-05-14T07:01:22.739Z,12.39
2023-05-14T07:06:24.809Z,12.50
2023-05-14T07:11:26.860Z,12.52
2023-05-14T07:16:29.066Z,12.66
2023-05-14T07:21:31.850Z,12.81
2023-05-14T07:26:34.123Z,13.00
2023-05-14T07:31:36.379Z,13.14
2023-05-14T07:36:38.874Z,13.24
2023-05-14T07:41:40.980Z,13.50
2023-05-14T07:46:43.134Z,13.61
2023-05-14T07:51:45.268Z,13.77
2023-05-14T07:56:47.370Z,13.84
2023-05-14T08:01:49.483Z,13.95
2023-05-14T08:06:51.715Z,13.94
2023-05-14T08:11:54.316Z,13.89
2023-05-14T08:16:56.484Z,13.94
2023-05-14T08:21:58.691Z,13.87
2023-05-14T08:27:00.916Z,13.95
2023-05-14T08:32:11.668Z,13.80
2023-05-14T08:37:21.770Z,13.78
2023-05-14T08:42:25.786Z,13.78
2023-05-14T08:47:32.864Z,13.70
2023-05-14T08:52:35.611Z,13.66
2023-05-14T08:57:37.811Z,13.76
2023-05-14T09:02:41.763Z,13.68
2023-05-14T09:07:43.945Z,13.76
2023-05-14T09:12:46.408Z,13.73
2023-05-14T09:17:48.781Z,13.70
2023-05-14T09:22:54.737Z,13.71
2023-05-14T09:27:58.657Z,13.67
2023-05-14T09:33:01.586Z,13.64
2023-05-14T09:38:03.769Z,13.68
2023-05-14T09:43:05.893Z,13.71
2023-05-14T09:48:08.746Z,13.80
2023-05-14T09:53:11.696Z,13.77
2023-05-14T09:58:14.715Z,13.71
2023-05-14T10:03:19.958Z,13.76
2023-05-14T10:08:35.393Z,13.74
2023-05-14T10:13:41.902Z,13.85
2023-05-14T10:18:48.568Z,13.80
2023-05-14T10:23:51.980Z,13.97
2023-05-14T10:28:54.323Z,14.15
2023-05-14T10:33:58.029Z,14.25
2023-05-14T10:39:04.445Z,14.43
2023-05-14T10:44:09.953Z,14.32
2023-05-14T10:49:12.206Z,14.18
2023-05-14T10:54:16.534Z,14.10
2023-05-14T10:59:18.575Z,14.17
2023-05-14T11:04:23.814Z,14.07
2023-05-14T11:09:26.245Z,14.16
2023-05-14T11:14:28.659Z,14.12
2023-05-14T11:19:31.019Z,14.08
2023-05-14T11:24:33.089Z,14.00
2023-05-14T11:29:36.995Z,14.04
2023-05-14T11:34:39.529Z,13.98
2023-05-14T11:39:49.505Z,13.93
2023-05-14T11:44:53.849Z,14.01
2023-05-14T11:49:55.963Z,13.99
2023-05-14T11:54:58.470Z,13.88
2023-05-14T12:00:00.557Z,13.83
2023-05-14T12:05:02.741Z,13.81
2023-05-14T12:10:05.523Z,13.72
2023-05-14T12:15:13.461Z,13.63
2023-05-14T12:20:15.644Z,13.46
2023-05-14T12:25:17.897Z,13.48
2023-05-14T12:30:22.065Z,13.37
2023-05-14T12:35:26.829Z,13.41
2023-05-14T12:40:29.552Z,13.39
2023-05-14T12:45:31.786Z,13.29
2023-05-14T12:50:33.866Z,13.28
2023-05-14T12:55:35.953Z,13.31
2023-05-14T13:00:38.153Z,13.21
2023-05-14T13:05:40.331Z,13.13
2023-05-14T13:10:42.419Z,13.19
2023-05-14T13:15:46.757Z,13.19
2023-05-14T13:20:48.943Z,13.15
2023-05-14T13:25:51.114Z,13.10
2023-05-14T13:31:22.621Z,13.03
2023-05-14T13:36:24.779Z,13.04
2023-05-14T13:41:26.864Z,13.08
2023-05-14T13:46:29.076Z,12.95
2023-05-14T13:51:31.426Z,12.92
2023-05-14T13:56:33.538Z,12.87
2023-05-14T14:01:35.760Z,12.90
2023-05-14T14:06:37.867Z,13.05
2023-05-14T14:11:41.104Z,12.99
2023-05-14T14:16:43.463Z,13.01
2023-05-14T14:21:45.675Z,13.00
2023-05-14T14:26:47.749Z,12.96
2023-05-14T14:31:49.937Z,12.86
2023-05-14T14:36:52.228Z,12.91
2023-05-14T14:41:54.357Z,12.83
2023-05-14T14:46:56.416Z,12.90
2023-05-14T14:51:58.665Z,12.87
2023-05-14T14:57:00.829Z,12.91
2023-05-14T15:02:03.358Z,12.94
2023-05-14T15:07:06.293Z,12.85
2023-05-14T15:12:09.102Z,12.82
2023-05-14T15:17:11.594Z,12.69
2023-05-14T15:22:13.704Z,12.59
2023-05-14T15:27:15.806Z,12.51
2023-05-14T15:32:17.931Z,12.51
2023-05-14T15:37:20.044Z,12.45
2023-05-14T15:42:22.188Z,12.35
2023-05-14T15:47:24.257Z,12.38
2023-05-14T15:52:26.573Z,12.36
2023-05-14T15:57:28.775Z,12.34
2023-05-14T16:02:33.338Z,12.26
2023-05-14T16:07:36.336Z,12.29
2023-05-14T16:12:38.488Z,12.27
2023-05-14T16:17:41.063Z,12.18
2023-05-14T16:22:43.296Z,12.15
2023-05-14T16:27:45.540Z,12.18
2023-05-14T16:32:49.496Z,12.27
2023-05-14T16:37:51.750Z,12.18
2023-05-14T16:42:53.845Z,12.17
2023-05-14T16:47:55.986Z,12.23
2023-05-14T16:52:58.156Z,12.17
2023-05-14T16:58:00.253Z,12.28
2023-05-14T17:03:02.501Z,12.17
2023-05-14T17:08:05.434Z,12.23
2023-05-14T17:13:07.682Z,12.34
2023-05-14T17:18:12.064Z,12.29
2023-05-14T17:23:14.510Z,12.31
2023-05-14T17:28:16.645Z,12.36
2023-05-14T17:33:18.764Z,12.36
2023-05-14T17:38:20.851Z,12.27
2023-05-14T17:43:23.015Z,12.29
2023-05-14T17:48:25.167Z,12.19
2023-05-14T17:53:27.263Z,12.23
2023-05-14T17:58:29.415Z,12.18
2023-05-14T18:03:31.612Z,12.24
2023-05-14T18:08:33.760Z,12.13
2023-05-14T18:13:35.910Z,12.16
2023-05-14T18:18:38.104Z,12.10
2023-05-14T18:23:40.923Z,12.16
2023-05-14T18:28:43.139Z,12.14
2023-05-14T18:33:45.309Z,12.15
2023-05-14T18:38:47.477Z,12.17
2023-05-14T18:43:50.056Z,12.27
2023-05-14T18:48:52.183Z,12.26
2023-05-14T18:53:54.743Z,12.27
2023-05-14T18:58:56.890Z,12.35
2023-05-14T19:03:59.007Z,12.30
2023-05-14T19:09:01.496Z,12.31
2023-05-14T19:14:03.596Z,12.34
2023-05-14T19:19:05.756Z,12.25
2023-05-14T19:24:08.242Z,12.33
2023-05-14T19:29:10.424Z,12.26
2023-05-14T19:34:12.633Z,12.31
2023-05-14T19:39:14.702Z,12.33
2023-05-14T19:44:16.814Z,12.35
2023-05-14T19:49:19.007Z,12.33
2023-05-14T19:54:21.146Z,12.29
2023-05-14T19:59:23.773Z,12.30
2023-05-14T20:04:26.123Z,12.38
2023-05-14T20:09:28.221Z,12.40
2023-05-14T20:14:30.291Z,12.39
2023-05-14T20:19:32.504Z,12.33
2023-05-14T20:24:34.608Z,12.34
2023-05-14T20:29:36.711Z,12.40
2023-05-14T20:34:38.780Z,12.43
2023-05-14T20:39:40.934Z,12.43
2023-05-14T20:44:43.076Z,12.40
2023-05-14T20:49:45.104Z,12.37
2023-05-14T20:54:47.209Z,12.41
2023-05-14T20:59:49.387Z,12.40
2023-05-14T21:04:51.733Z,12.33
2023-05-14T21:09:53.917Z,12.37
2023-05-14T21:14:56.103Z,12.32
2023-05-14T21:19:58.177Z,12.36
2023-05-14T21:25:00.262Z,12.27
2023-05-14T21:30:02.497Z,12.31
2023-05-14T21:35:05.401Z,12.20
2023-05-14T21:40:09.418Z,12.25
2023-05-14T21:45:11.621Z,12.36
2023-05-14T21:50:13.877Z,12.33
2023-05-14T21:55:16.076Z,12.27
2023-05-14T22:00:23.395Z,12.26
2023-05-14T22:05:26.106Z,12.29
2023-05-14T22:10:28.431Z,12.24
2023-05-14T22:15:30.607Z,12.31
2023-05-14T22:20:32.688Z,12.31
2023-05-14T22:25:34.869Z,12.33
2023-05-14T22:30:36.974Z,12.27
2023-05-14T22:35:39.181Z,12.28
2023-05-14T22:40:41.308Z,12.29
2023-05-14T22:45:43.771Z,12.31
2023-05-14T22:50:45.912Z,12.36
2023-05-14T22:55:48.148Z,12.27
2023-05-14T23:00:50.323Z,12.34
2023-05-14T23:05:52.466Z,12.37
2023-05-14T23:10:54.523Z,12.38
2023-05-14T23:15:56.727Z,12.40
2023-05-14T23:20:58.928Z,12.38
2023-05-14T23:26:01.305Z,12.40
2023-05-14T23:31:03.487Z,12.40
2023-05-14T23:36:06.245Z,12.32
2023-05-14T23:41:08.339Z,12.39
2023-05-14T23:46:10.653Z,12.33
2023-05-14T23:51:12.805Z,12.34
2023-05-14T23:56:14.880Z,12.37
